createdAt,value
2018-07-31T00:02:37.672Z,21.41
2018-07-31T00:07:35.064Z,21.42
2018-07-31T00:12:32.478Z,21.28
2018-07-31T00:17:29.895Z,21.21
2018-07-31T00:22:27.316Z,21.10
2018-07-31T00:27:24.720Z,21.42
2018-07-31T00:32:22.105Z,21.12
2018-07-31T00:37:19.522Z,21.10
2018-07-31T00:42:16.900Z,20.93
2018-07-31T00:47:14.298Z,21.18
2018-07-31T00:52:11.693Z,21.07
2018-07-31T00:57:09.097Z,21.04
2018-07-31T01:02:06.545Z,21.65
2018-07-31T01:07:04.294Z,21.12
2018-07-31T01:12:01.719Z,21.75
2018-07-31T01:16:59.107Z,21.19
2018-07-31T01:21:56.566Z,20.97
2018-07-31T01:26:54.091Z,21.47
2018-07-31T01:31:51.471Z,20.86
2018-07-31T01:36:48.872Z,20.60
2018-07-31T01:41:46.310Z,20.41
2018-07-31T01:46:43.691Z,20.38
2018-07-31T01:51:41.096Z,20.31
2018-07-31T01:56:38.475Z,20.18
2018-07-31T02:01:35.894Z,20.18
2018-07-31T02:06:33.302Z,20.29
2018-07-31T02:11:30.695Z,20.32
2018-07-31T02:16:28.074Z,20.49
2018-07-31T02:21:25.503Z,20.10
2018-07-31T02:26:22.975Z,20.07
2018-07-31T02:31:20.379Z,19.98
2018-07-31T02:36:17.783Z,20.29
2018-07-31T02:41:15.187Z,19.87
2018-07-31T02:46:12.596Z,20.09
2018-07-31T02:51:10.045Z,19.97
2018-07-31T02:56:07.467Z,19.88
2018-07-31T03:01:04.923Z,19.93
2018-07-31T03:06:02.362Z,20.10
2018-07-31T03:10:59.818Z,19.95
2018-07-31T03:15:57.231Z,19.91
2018-07-31T03:20:54.715Z,19.99
2018-07-31T03:25:52.258Z,19.79
2018-07-31T03:30:49.687Z,19.96
2018-07-31T03:35:47.108Z,19.88
2018-07-31T03:40:44.579Z,20.06
2018-07-31T03:45:42.055Z,20.19
2018-07-31T03:50:39.496Z,20.25
2018-07-31T03:55:36.964Z,20.17
2018-07-31T04:00:34.323Z,20.34
2018-07-31T04:05:31.831Z,20.33
2018-07-31T04:10:29.283Z,20.53
2018-07-31T04:15:26.711Z,20.42
2018-07-31T04:20:24.439Z,20.50
2018-07-31T04:25:22.311Z,20.52
2018-07-31T04:30:19.736Z,20.67
2018-07-31T04:35:17.213Z,20.71
2018-07-31T04:40:14.644Z,20.84
2018-07-31T04:45:12.097Z,20.89
2018-07-31T04:50:10.459Z,21.24
2018-07-31T04:55:07.869Z,21.08
2018-07-31T05:00:07.289Z,20.88
2018-07-31T05:05:04.835Z,21.18
2018-07-31T05:10:02.280Z,21.00
2018-07-31T05:14:59.675Z,21.15
2018-07-31T05:19:57.126Z,21.31
2018-07-31T05:24:55.150Z,21.68
2018-07-31T05:29:52.580Z,21.83
2018-07-31T05:34:49.992Z,21.92
2018-07-31T05:39:47.399Z,22.09
2018-07-31T05:44:44.810Z,22.54
2018-07-31T05:49:42.259Z,23.09
2018-07-31T05:54:39.986Z,23.53
2018-07-31T05:59:37.422Z,23.77
2018-07-31T06:04:34.908Z,23.88
2018-07-31T06:09:32.397Z,24.29
2018-07-31T06:14:29.769Z,24.59
2018-07-31T06:19:27.205Z,24.76
2018-07-31T06:24:24.675Z,24.83
2018-07-31T06:29:22.115Z,25.02
2018-07-31T06:34:19.518Z,25.30
2018-07-31T06:39:16.937Z,25.48
2018-07-31T06:44:14.372Z,25.53
2018-07-31T06:49:12.759Z,25.74
2018-07-31T06:54:10.228Z,26.16
2018-07-31T06:59:07.631Z,26.57
2018-07-31T07:04:05.127Z,26.86
2018-07-31T07:09:02.863Z,26.65
2018-07-31T07:14:00.278Z,26.38
2018-07-31T07:18:57.701Z,26.97
2018-07-31T07:23:56.617Z,26.52
2018-07-31T07:28:56.158Z,25.83
2018-07-31T07:33:53.622Z,25.85
2018-07-31T07:38:51.030Z,25.91
2018-07-31T07:43:48.448Z,26.59
2018-07-31T07:48:45.880Z,27.01
2018-07-31T07:53:44.363Z,26.16
2018-07-31T07:58:41.762Z,26.64
2018-07-31T08:03:39.193Z,27.72
2018-07-31T08:08:36.613Z,27.62
2018-07-31T08:13:34.025Z,28.48
2018-07-31T08:18:34.466Z,27.56
2018-07-31T08:23:39.921Z,27.45
2018-07-31T08:28:37.386Z,28.82
2018-07-31T08:33:34.866Z,29.43
2018-07-31T08:38:32.305Z,28.08
2018-07-31T08:43:29.675Z,29.68
2018-07-31T08:48:27.108Z,30.64
2018-07-31T08:53:32.832Z,31.01
2018-07-31T08:58:30.243Z,30.41
2018-07-31T09:03:27.745Z,29.76
2018-07-31T09:08:25.261Z,29.25
2018-07-31T09:13:22.630Z,29.43
2018-07-31T09:18:20.029Z,29.77
2018-07-31T09:23:20.549Z,30.85
2018-07-31T09:28:18.576Z,30.85
2018-07-31T09:33:16.025Z,30.86
2018-07-31T09:38:13.439Z,30.69
2018-07-31T09:43:10.879Z,30.42
2018-07-31T09:48:08.322Z,30.31
2018-07-31T09:53:12.763Z,31.06
2018-07-31T09:58:10.300Z,30.80
2018-07-31T10:03:07.748Z,31.34
2018-07-31T10:08:05.626Z,32.41
2018-07-31T10:13:03.128Z,32.92
2018-07-31T10:18:00.684Z,32.39
2018-07-31T10:22:59.645Z,32.30
2018-07-31T10:28:03.706Z,32.89
2018-07-31T10:33:01.289Z,32.62
2018-07-31T10:37:58.763Z,32.79
2018-07-31T10:42:56.291Z,32.45
2018-07-31T10:47:53.765Z,31.67
2018-07-31T10:52:53.700Z,32.24
2018-07-31T10:57:51.299Z,31.70
2018-07-31T11:02:48.837Z,32.48
2018-07-31T11:07:46.237Z,32.27
2018-07-31T11:12:43.734Z,32.66
2018-07-31T11:17:41.332Z,32.82
2018-07-31T11:22:38.837Z,32.81
2018-07-31T11:27:36.409Z,32.95
2018-07-31T11:32:33.763Z,32.96
2018-07-31T11:37:31.203Z,31.91
2018-07-31T11:42:28.671Z,32.58
2018-07-31T11:47:26.124Z,32.52
2018-07-31T11:52:23.564Z,32.67
2018-07-31T11:57:20.983Z,32.62
2018-07-31T12:02:18.406Z,32.01
2018-07-31T12:07:15.859Z,32.00
2018-07-31T12:12:13.307Z,33.12
2018-07-31T12:17:10.755Z,32.90
2018-07-31T12:22:08.187Z,32.70
2018-07-31T12:27:05.712Z,32.02
2018-07-31T12:32:03.195Z,32.78
2018-07-31T12:37:00.605Z,33.11
2018-07-31T12:41:58.038Z,32.53
2018-07-31T12:46:55.480Z,32.39
2018-07-31T12:51:53.771Z,33.09
2018-07-31T12:56:51.279Z,32.91
2018-07-31T13:01:48.695Z,32.66
2018-07-31T13:06:46.228Z,32.49
2018-07-31T13:11:43.635Z,31.91
2018-07-31T13:16:41.072Z,32.53
2018-07-31T13:21:38.544Z,32.37
2018-07-31T13:26:36.014Z,32.39
2018-07-31T13:31:33.483Z,32.25
2018-07-31T13:36:30.918Z,32.23
2018-07-31T13:41:28.362Z,32.59
2018-07-31T13:46:25.815Z,32.90
2018-07-31T13:51:23.251Z,32.19
2018-07-31T13:56:20.659Z,32.63
2018-07-31T14:01:18.124Z,33.27
2018-07-31T14:06:22.243Z,33.15
2018-07-31T14:11:19.701Z,31.78
2018-07-31T14:16:17.123Z,32.50
2018-07-31T14:21:17.083Z,32.88
2018-07-31T14:26:14.555Z,33.26
2018-07-31T14:31:12.154Z,32.33
2018-07-31T14:36:09.616Z,32.75
2018-07-31T14:41:07.065Z,33.17
2018-07-31T14:46:04.527Z,32.96
2018-07-31T14:51:01.978Z,33.04
2018-07-31T14:55:59.435Z,33.05
2018-07-31T15:00:56.863Z,33.01
2018-07-31T15:05:54.355Z,33.01
2018-07-31T15:10:51.864Z,32.79
2018-07-31T15:15:49.258Z,32.68
2018-07-31T15:20:46.779Z,32.90
2018-07-31T15:25:44.239Z,33.31
2018-07-31T15:30:41.699Z,33.08
2018-07-31T15:35:39.171Z,32.79
2018-07-31T15:40:36.601Z,32.58
2018-07-31T15:45:34.123Z,32.32
2018-07-31T15:50:31.545Z,32.21
2018-07-31T15:55:29.014Z,32.51
2018-07-31T16:00:26.493Z,31.74
2018-07-31T16:05:23.947Z,31.89
2018-07-31T16:10:21.375Z,31.75
2018-07-31T16:15:18.771Z,31.45
2018-07-31T16:20:16.292Z,31.64
2018-07-31T16:25:13.743Z,31.58
2018-07-31T16:30:11.211Z,31.61
2018-07-31T16:35:08.644Z,31.52
2018-07-31T16:40:06.148Z,31.27
2018-07-31T16:45:03.785Z,31.25
2018-07-31T16:50:01.224Z,31.43
2018-07-31T16:54:58.647Z,31.17
2018-07-31T16:59:56.140Z,31.14
2018-07-31T17:04:53.608Z,31.80
2018-07-31T17:09:51.048Z,31.54
2018-07-31T17:14:48.481Z,31.44
2018-07-31T17:19:45.921Z,31.74
2018-07-31T17:24:43.370Z,31.13
2018-07-31T17:29:40.843Z,31.23
2018-07-31T17:34:38.315Z,30.97
2018-07-31T17:39:35.730Z,30.95
2018-07-31T17:44:33.180Z,31.34
2018-07-31T17:49:30.726Z,30.83
2018-07-31T17:54:28.949Z,30.69
2018-07-31T17:59:26.379Z,30.53
2018-07-31T18:04:24.669Z,30.49
2018-07-31T18:09:22.058Z,29.87
2018-07-31T18:14:19.666Z,30.07
2018-07-31T18:19:16.976Z,29.99
2018-07-31T18:24:14.515Z,28.90
2018-07-31T18:29:12.023Z,28.67
2018-07-31T18:34:09.360Z,28.43
2018-07-31T18:39:09.448Z,28.04
2018-07-31T18:44:06.902Z,27.90
2018-07-31T18:49:04.522Z,27.44
2018-07-31T18:54:02.367Z,27.16
2018-07-31T18:58:59.906Z,27.11
2018-07-31T19:03:57.321Z,27.01
2018-07-31T19:08:54.768Z,26.66
2018-07-31T19:13:52.208Z,26.40
2018-07-31T19:18:49.659Z,26.29
2018-07-31T19:23:48.174Z,26.08
2018-07-31T19:28:45.617Z,25.98
2018-07-31T19:33:44.859Z,25.89
2018-07-31T19:39:14.742Z,25.81
2018-07-31T19:44:24.411Z,25.69
2018-07-31T19:49:39.538Z,25.55
2018-07-31T20:00:03.202Z,25.36
2018-07-31T20:05:10.185Z,25.30
2018-07-31T20:10:07.714Z,25.28
2018-07-31T20:15:05.143Z,25.17
2018-07-31T20:20:02.603Z,25.20
2018-07-31T20:25:00.034Z,25.05
2018-07-31T20:29:57.410Z,24.93
2018-07-31T20:34:54.823Z,24.84
2018-07-31T20:39:52.241Z,24.79
2018-07-31T20:44:49.690Z,24.67
2018-07-31T20:49:47.073Z,24.63
2018-07-31T20:54:44.464Z,24.47
2018-07-31T20:59:41.892Z,24.40
2018-07-31T21:04:39.258Z,24.29
2018-07-31T21:09:36.647Z,24.35
2018-07-31T21:14:34.121Z,24.24
2018-07-31T21:19:31.514Z,23.94
2018-07-31T21:24:28.898Z,24.11
2018-07-31T21:29:26.351Z,23.94
2018-07-31T21:34:23.722Z,23.90
2018-07-31T21:39:21.126Z,23.92
2018-07-31T21:44:18.541Z,23.82
2018-07-31T21:49:15.962Z,23.79
2018-07-31T21:54:13.361Z,23.71
2018-07-31T21:59:10.740Z,23.65
2018-07-31T22:04:08.170Z,23.61
2018-07-31T22:09:07.104Z,23.55
2018-07-31T22:14:04.510Z,23.54
2018-07-31T22:19:01.892Z,23.35
2018-07-31T22:24:00.105Z,23.36
2018-07-31T22:28:57.504Z,23.39
2018-07-31T22:33:54.886Z,23.35
2018-07-31T22:38:52.262Z,23.27
2018-07-31T22:43:49.652Z,23.21
2018-07-31T22:48:47.046Z,23.07
2018-07-31T22:53:45.522Z,23.10
2018-07-31T22:58:42.938Z,22.99
2018-07-31T23:03:40.339Z,22.93
2018-07-31T23:08:37.739Z,22.80
2018-07-31T23:13:35.122Z,22.72
2018-07-31T23:18:32.510Z,22.72
2018-07-31T23:23:30.946Z,22.71
2018-07-31T23:28:28.394Z,22.59
2018-07-31T23:33:25.792Z,22.53
2018-07-31T23:38:23.199Z,22.53
2018-07-31T23:43:20.614Z,22.46
2018-07-31T23:48:18.019Z,22.48
2018-07-31T23:53:19.526Z,22.40
2018-07-31T23:58:16.971Z,22.34
